sensor_id;sensor_type;location;lat;lon;timestamp;P1;durP1;ratioP1;P2;durP2;ratioP2
14153;SDS011;7157;53.144;7.570;2023-05-27T00:01:29;9.30;;;2.80;;
14153;SDS011;7157;53.144;7.570;2023-05-27T00:11:31;11.90;;;2.60;;
14153;SDS011;7157;53.144;7.570;2023-05-27T00:21:36;12.77;;;2.63;;
14153;SDS011;7157;53.144;7.570;2023-05-27T00:31:38;13.95;;;3.25;;
14153;SDS011;7157;53.144;7.570;2023-05-27T00:41:43;8.43;;;2.50;;
14153;SDS011;7157;53.144;7.570;2023-05-27T00:51:51;14.07;;;2.50;;
14153;SDS011;7157;53.144;7.570;2023-05-27T01:01:56;11.60;;;3.22;;
14153;SDS011;7157;53.144;7.570;2023-05-27T01:11:59;13.02;;;2.63;;
14153;SDS011;7157;53.144;7.570;2023-05-27T01:22:12;9.65;;;3.35;;
14153;SDS011;7157;53.144;7.570;2023-05-27T01:32:18;7.35;;;2.42;;
14153;SDS011;7157;53.144;7.570;2023-05-27T01:42:26;6.60;;;2.60;;
14153;SDS011;7157;53.144;7.570;2023-05-27T01:52:30;7.85;;;2.38;;
14153;SDS011;7157;53.144;7.570;2023-05-27T02:02:34;13.88;;;2.67;;
14153;SDS011;7157;53.144;7.570;2023-05-27T02:12:39;13.07;;;2.72;;
14153;SDS011;7157;53.144;7.570;2023-05-27T02:22:41;11.20;;;2.92;;
14153;SDS011;7157;53.144;7.570;2023-05-27T02:32:46;10.50;;;2.92;;
14153;SDS011;7157;53.144;7.570;2023-05-27T02:42:49;8.02;;;2.55;;
14153;SDS011;7157;53.144;7.570;2023-05-27T02:52:53;12.57;;;3.22;;
14153;SDS011;7157;53.144;7.570;2023-05-27T03:02:56;14.15;;;2.60;;
14153;SDS011;7157;53.144;7.570;2023-05-27T03:13:00;9.30;;;2.72;;
14153;SDS011;7157;53.144;7.570;2023-05-27T03:23:03;6.70;;;2.67;;
14153;SDS011;7157;53.144;7.570;2023-05-27T03:33:07;6.13;;;2.33;;
14153;SDS011;7157;53.144;7.570;2023-05-27T03:43:10;13.63;;;3.15;;
14153;SDS011;7157;53.144;7.570;2023-05-27T03:53:14;8.43;;;2.55;;
14153;SDS011;7157;53.144;7.570;2023-05-27T04:03:17;10.18;;;3.15;;
14153;SDS011;7157;53.144;7.570;2023-05-27T04:13:21;9.70;;;2.83;;
14153;SDS011;7157;53.144;7.570;2023-05-27T04:23:24;12.02;;;3.17;;
14153;SDS011;7157;53.144;7.570;2023-05-27T04:33:28;8.70;;;2.63;;
14153;SDS011;7157;53.144;7.570;2023-05-27T04:43:31;11.82;;;3.58;;
14153;SDS011;7157;53.144;7.570;2023-05-27T04:53:35;8.75;;;3.03;;
14153;SDS011;7157;53.144;7.570;2023-05-27T05:03:38;14.77;;;3.25;;
14153;SDS011;7157;53.144;7.570;2023-05-27T05:13:55;12.50;;;3.10;;
14153;SDS011;7157;53.144;7.570;2023-05-27T05:23:57;15.18;;;3.60;;
14153;SDS011;7157;53.144;7.570;2023-05-27T05:34:01;11.60;;;2.88;;
14153;SDS011;7157;53.144;7.570;2023-05-27T05:44:04;16.50;;;3.05;;
14153;SDS011;7157;53.144;7.570;2023-05-27T05:54:08;13.02;;;2.97;;
14153;SDS011;7157;53.144;7.570;2023-05-27T06:04:11;14.48;;;3.33;;
14153;SDS011;7157;53.144;7.570;2023-05-27T06:14:15;13.73;;;3.38;;
14153;SDS011;7157;53.144;7.570;2023-05-27T06:24:18;21.02;;;3.80;;
14153;SDS011;7157;53.144;7.570;2023-05-27T06:34:22;18.55;;;3.05;;
14153;SDS011;7157;53.144;7.570;2023-05-27T06:44:25;16.92;;;3.50;;
14153;SDS011;7157;53.144;7.570;2023-05-27T06:54:29;17.95;;;3.50;;
14153;SDS011;7157;53.144;7.570;2023-05-27T07:04:32;14.02;;;2.50;;
14153;SDS011;7157;53.144;7.570;2023-05-27T07:14:36;17.92;;;3.25;;
14153;SDS011;7157;53.144;7.570;2023-05-27T07:24:39;17.05;;;3.03;;
14153;SDS011;7157;53.144;7.570;2023-05-27T07:34:43;16.45;;;3.03;;
14153;SDS011;7157;53.144;7.570;2023-05-27T07:44:46;15.00;;;3.13;;
14153;SDS011;7157;53.144;7.570;2023-05-27T07:54:50;14.05;;;2.67;;
14153;SDS011;7157;53.144;7.570;2023-05-27T08:04:56;10.70;;;3.00;;
14153;SDS011;7157;53.144;7.570;2023-05-27T08:15:00;14.98;;;3.30;;
14153;SDS011;7157;53.144;7.570;2023-05-27T08:25:03;13.35;;;3.00;;
14153;SDS011;7157;53.144;7.570;2023-05-27T08:35:08;10.48;;;3.47;;
14153;SDS011;7157;53.144;7.570;2023-05-27T08:45:12;16.58;;;3.05;;
14153;SDS011;7157;53.144;7.570;2023-05-27T08:55:17;20.45;;;3.08;;
14153;SDS011;7157;53.144;7.570;2023-05-27T09:05:23;14.07;;;2.97;;
14153;SDS011;7157;53.144;7.570;2023-05-27T09:15:27;14.05;;;3.88;;
14153;SDS011;7157;53.144;7.570;2023-05-27T09:25:34;13.35;;;3.17;;
14153;SDS011;7157;53.144;7.570;2023-05-27T09:35:38;15.20;;;3.33;;
14153;SDS011;7157;53.144;7.570;2023-05-27T09:45:42;13.25;;;3.10;;
14153;SDS011;7157;53.144;7.570;2023-05-27T09:55:48;16.55;;;3.50;;
14153;SDS011;7157;53.144;7.570;2023-05-27T10:05:51;17.27;;;3.95;;
14153;SDS011;7157;53.144;7.570;2023-05-27T10:15:55;16.05;;;3.85;;
14153;SDS011;7157;53.144;7.570;2023-05-27T10:26:00;18.80;;;3.80;;
14153;SDS011;7157;53.144;7.570;2023-05-27T10:36:08;15.35;;;3.80;;
14153;SDS011;7157;53.144;7.570;2023-05-27T10:46:12;12.97;;;3.60;;
14153;SDS011;7157;53.144;7.570;2023-05-27T10:56:17;18.58;;;4.03;;
14153;SDS011;7157;53.144;7.570;2023-05-27T11:06:20;12.43;;;3.20;;
14153;SDS011;7157;53.144;7.570;2023-05-27T11:16:24;11.35;;;3.50;;
14153;SDS011;7157;53.144;7.570;2023-05-27T11:26:27;17.80;;;4.35;;
14153;SDS011;7157;53.144;7.570;2023-05-27T11:36:31;16.88;;;3.95;;
14153;SDS011;7157;53.144;7.570;2023-05-27T11:46:34;13.02;;;3.97;;
14153;SDS011;7157;53.144;7.570;2023-05-27T11:56:39;12.27;;;4.28;;
14153;SDS011;7157;53.144;7.570;2023-05-27T12:06:42;15.52;;;4.75;;
14153;SDS011;7157;53.144;7.570;2023-05-27T12:16:48;13.45;;;4.22;;
14153;SDS011;7157;53.144;7.570;2023-05-27T12:26:50;11.70;;;4.10;;
14153;SDS011;7157;53.144;7.570;2023-05-27T12:36:54;14.48;;;4.32;;
14153;SDS011;7157;53.144;7.570;2023-05-27T12:46:57;14.87;;;4.10;;
14153;SDS011;7157;53.144;7.570;2023-05-27T12:57:01;14.55;;;3.65;;
14153;SDS011;7157;53.144;7.570;2023-05-27T13:07:09;11.55;;;4.40;;
14153;SDS011;7157;53.144;7.570;2023-05-27T13:17:13;11.65;;;3.88;;
14153;SDS011;7157;53.144;7.570;2023-05-27T13:27:16;12.93;;;3.93;;
14153;SDS011;7157;53.144;7.570;2023-05-27T13:37:20;12.30;;;4.03;;
14153;SDS011;7157;53.144;7.570;2023-05-27T13:47:23;13.32;;;4.13;;
14153;SDS011;7157;53.144;7.570;2023-05-27T13:57:27;12.32;;;3.95;;
14153;SDS011;7157;53.144;7.570;2023-05-27T14:07:30;15.38;;;3.92;;
14153;SDS011;7157;53.144;7.570;2023-05-27T14:17:42;16.65;;;3.50;;
14153;SDS011;7157;53.144;7.570;2023-05-27T14:27:45;11.57;;;3.70;;
14153;SDS011;7157;53.144;7.570;2023-05-27T14:37:49;13.38;;;3.28;;
14153;SDS011;7157;53.144;7.570;2023-05-27T14:47:52;11.70;;;3.28;;
14153;SDS011;7157;53.144;7.570;2023-05-27T14:57:57;16.23;;;3.80;;
14153;SDS011;7157;53.144;7.570;2023-05-27T15:08:00;11.15;;;3.85;;
14153;SDS011;7157;53.144;7.570;2023-05-27T15:18:05;13.05;;;3.65;;
14153;SDS011;7157;53.144;7.570;2023-05-27T15:28:09;12.23;;;3.30;;
14153;SDS011;7157;53.144;7.570;2023-05-27T15:38:14;10.93;;;3.28;;
14153;SDS011;7157;53.144;7.570;2023-05-27T15:48:17;10.02;;;3.10;;
14153;SDS011;7157;53.144;7.570;2023-05-27T15:58:21;10.85;;;3.22;;
14153;SDS011;7157;53.144;7.570;2023-05-27T16:08:23;11.65;;;3.63;;
14153;SDS011;7157;53.144;7.570;2023-05-27T16:18:27;11.00;;;3.15;;
14153;SDS011;7157;53.144;7.570;2023-05-27T16:28:30;9.55;;;3.17;;
14153;SDS011;7157;53.144;7.570;2023-05-27T16:38:34;13.00;;;3.53;;
14153;SDS011;7157;53.144;7.570;2023-05-27T16:48:37;12.93;;;3.58;;
14153;SDS011;7157;53.144;7.570;2023-05-27T16:58:41;14.32;;;3.20;;
14153;SDS011;7157;53.144;7.570;2023-05-27T17:08:46;10.95;;;3.30;;
14153;SDS011;7157;53.144;7.570;2023-05-27T17:18:50;12.25;;;3.85;;
14153;SDS011;7157;53.144;7.570;2023-05-27T17:28:53;11.10;;;3.67;;
14153;SDS011;7157;53.144;7.570;2023-05-27T17:38:57;20.90;;;4.03;;
14153;SDS011;7157;53.144;7.570;2023-05-27T17:49:00;12.73;;;4.00;;
14153;SDS011;7157;53.144;7.570;2023-05-27T17:59:05;15.80;;;5.03;;
14153;SDS011;7157;53.144;7.570;2023-05-27T18:09:07;11.40;;;3.30;;
14153;SDS011;7157;53.144;7.570;2023-05-27T18:19:12;15.98;;;3.17;;
14153;SDS011;7157;53.144;7.570;2023-05-27T18:29:15;17.67;;;4.00;;
14153;SDS011;7157;53.144;7.570;2023-05-27T18:39:19;14.40;;;3.75;;
14153;SDS011;7157;53.144;7.570;2023-05-27T18:49:22;15.93;;;3.80;;
14153;SDS011;7157;53.144;7.570;2023-05-27T18:59:26;14.10;;;3.63;;
14153;SDS011;7157;53.144;7.570;2023-05-27T19:09:28;19.38;;;4.63;;
14153;SDS011;7157;53.144;7.570;2023-05-27T19:19:33;16.55;;;3.78;;
14153;SDS011;7157;53.144;7.570;2023-05-27T19:29:36;12.43;;;3.58;;
14153;SDS011;7157;53.144;7.570;2023-05-27T19:39:40;16.05;;;3.28;;
14153;SDS011;7157;53.144;7.570;2023-05-27T19:49:42;13.70;;;4.03;;
14153;SDS011;7157;53.144;7.570;2023-05-27T19:59:48;12.82;;;3.35;;
14153;SDS011;7157;53.144;7.570;2023-05-27T20:09:51;17.08;;;3.72;;
14153;SDS011;7157;53.144;7.570;2023-05-27T20:19:55;15.73;;;3.28;;
14153;SDS011;7157;53.144;7.570;2023-05-27T20:29:58;14.27;;;3.20;;
14153;SDS011;7157;53.144;7.570;2023-05-27T20:40:02;12.65;;;3.10;;
14153;SDS011;7157;53.144;7.570;2023-05-27T20:50:07;13.85;;;3.58;;
14153;SDS011;7157;53.144;7.570;2023-05-27T21:00:14;14.48;;;3.83;;
14153;SDS011;7157;53.144;7.570;2023-05-27T21:10:17;21.55;;;4.03;;
14153;SDS011;7157;53.144;7.570;2023-05-27T21:20:21;13.60;;;3.55;;
14153;SDS011;7157;53.144;7.570;2023-05-27T21:30:24;12.48;;;3.38;;
14153;SDS011;7157;53.144;7.570;2023-05-27T21:40:28;12.98;;;3.75;;
14153;SDS011;7157;53.144;7.570;2023-05-27T21:50:31;14.95;;;4.22;;
14153;SDS011;7157;53.144;7.570;2023-05-27T22:00:36;14.90;;;4.50;;
14153;SDS011;7157;53.144;7.570;2023-05-27T22:10:39;13.70;;;3.60;;
14153;SDS011;7157;53.144;7.570;2023-05-27T22:20:43;16.27;;;3.92;;
14153;SDS011;7157;53.144;7.570;2023-05-27T22:30:47;15.88;;;3.97;;
14153;SDS011;7157;53.144;7.570;2023-05-27T22:40:51;12.18;;;3.67;;
14153;SDS011;7157;53.144;7.570;2023-05-27T22:50:53;14.60;;;3.90;;
14153;SDS011;7157;53.144;7.570;2023-05-27T23:00:58;13.77;;;3.80;;
14153;SDS011;7157;53.144;7.570;2023-05-27T23:11:01;10.70;;;3.80;;
14153;SDS011;7157;53.144;7.570;2023-05-27T23:21:05;13.68;;;4.63;;
14153;SDS011;7157;53.144;7.570;2023-05-27T23:31:08;14.65;;;4.53;;
14153;SDS011;7157;53.144;7.570;2023-05-27T23:41:12;10.77;;;4.70;;
14153;SDS011;7157;53.144;7.570;2023-05-27T23:51:15;12.73;;;4.30;;
